createdAt,value
2022-12-05T00:01:03.262Z,-1.75
2022-12-05T00:02:24.264Z,-1.71
2022-12-05T00:03:45.760Z,-1.88
2022-12-05T00:05:08.397Z,-1.88
2022-12-05T00:06:29.809Z,-1.97
2022-12-05T00:07:50.957Z,-1.95
2022-12-05T00:09:14.869Z,-1.98
2022-12-05T00:10:35.858Z,-2.02
2022-12-05T00:11:57.756Z,-2.00
2022-12-05T00:13:16.605Z,-1.89
2022-12-05T00:14:37.553Z,-1.92
2022-12-05T00:15:55.883Z,-1.86
2022-12-05T00:17:16.812Z,-1.83
2022-12-05T00:18:35.247Z,-1.86
2022-12-05T00:19:57.072Z,-1.91
2022-12-05T00:21:19.388Z,-1.92
2022-12-05T00:22:41.665Z,-1.90
2022-12-05T00:24:02.599Z,-1.84
2022-12-05T00:25:26.507Z,-1.82
2022-12-05T00:26:48.131Z,-1.74
2022-12-05T00:28:06.611Z,-1.73
2022-12-05T00:29:28.210Z,-1.80
2022-12-05T00:30:46.509Z,-1.76
2022-12-05T00:32:07.673Z,-1.80
2022-12-05T00:33:25.886Z,-1.86
2022-12-05T00:34:46.902Z,-1.86
2022-12-05T00:36:08.572Z,-1.91
2022-12-05T00:37:32.688Z,-1.82
2022-12-05T00:38:52.359Z,-1.80
2022-12-05T00:40:13.983Z,-1.77
2022-12-05T00:41:35.203Z,-1.83
2022-12-05T00:42:56.761Z,-1.94
2022-12-05T00:44:15.051Z,-1.90
2022-12-05T00:45:37.476Z,-1.86
2022-12-05T00:46:55.695Z,-1.84
2022-12-05T00:48:16.701Z,-1.89
2022-12-05T00:49:35.098Z,-1.89
2022-12-05T00:51:05.469Z,-1.88
2022-12-05T00:52:26.601Z,-1.85
2022-12-05T00:53:46.374Z,-1.89
2022-12-05T00:55:08.213Z,-1.93
2022-12-05T00:56:29.544Z,-1.88
2022-12-05T00:57:53.111Z,-1.80
2022-12-05T00:59:20.596Z,-1.78
2022-12-05T01:00:39.124Z,-1.83
2022-12-05T01:02:00.542Z,-1.81
2022-12-05T01:03:19.025Z,-1.84
2022-12-05T01:04:40.382Z,-1.83
2022-12-05T01:06:00.549Z,-1.78
2022-12-05T01:07:21.666Z,-1.81
2022-12-05T01:08:40.509Z,-1.81
2022-12-05T01:10:01.412Z,-1.83
2022-12-05T01:11:21.300Z,-1.85
2022-12-05T01:12:42.494Z,-1.88
2022-12-05T01:14:03.680Z,-1.91
2022-12-05T01:15:24.679Z,-1.96
2022-12-05T01:16:46.912Z,-1.99
2022-12-05T01:18:08.277Z,-1.94
2022-12-05T01:19:33.106Z,-1.96
2022-12-05T01:20:53.285Z,-1.96
2022-12-05T01:22:14.230Z,-1.93
2022-12-05T01:23:32.645Z,-1.88
2022-12-05T01:24:53.574Z,-1.91
2022-12-05T01:26:15.953Z,-2.00
2022-12-05T01:27:37.005Z,-1.95
2022-12-05T01:28:56.831Z,-1.93
2022-12-05T01:30:20.610Z,-1.85
2022-12-05T01:31:42.648Z,-1.77
2022-12-05T01:33:00.955Z,-1.72
2022-12-05T01:34:23.391Z,-1.70
2022-12-05T01:35:42.942Z,-1.74
2022-12-05T01:37:04.076Z,-1.71
2022-12-05T01:38:22.296Z,-1.71
2022-12-05T01:39:43.233Z,-1.74
2022-12-05T01:41:03.351Z,-1.81
2022-12-05T01:42:26.331Z,-1.81
2022-12-05T01:44:00.645Z,-1.76
2022-12-05T01:45:35.724Z,-1.78
2022-12-05T01:46:55.270Z,-1.75
2022-12-05T01:48:22.918Z,-1.81
2022-12-05T01:49:44.164Z,-1.75
2022-12-05T01:51:06.557Z,-1.70
2022-12-05T01:52:31.680Z,-1.70
2022-12-05T01:53:52.916Z,-1.65
2022-12-05T01:55:18.217Z,-1.70
2022-12-05T01:56:43.407Z,-1.63
2022-12-05T01:58:05.784Z,-1.67
2022-12-05T01:59:31.454Z,-1.71
2022-12-05T02:00:52.578Z,-1.73
2022-12-05T02:02:16.544Z,-1.78
2022-12-05T02:03:38.286Z,-1.75
2022-12-05T02:05:08.661Z,-1.74
2022-12-05T02:06:31.506Z,-1.76
2022-12-05T02:07:50.186Z,-1.68
2022-12-05T02:09:11.203Z,-1.63
2022-12-05T02:10:37.055Z,-1.57
2022-12-05T02:12:03.986Z,-1.57
2022-12-05T02:14:19.584Z,-1.57
2022-12-05T02:15:52.412Z,-1.52
2022-12-05T02:17:39.470Z,-1.56
2022-12-05T02:19:28.975Z,-1.49
2022-12-05T02:21:01.016Z,-1.55
2022-12-05T02:23:00.377Z,-1.74
2022-12-05T02:24:59.060Z,-1.63
2022-12-05T02:26:51.206Z,-1.74
2022-12-05T02:28:39.338Z,-1.70
2022-12-05T02:30:11.186Z,-1.63
2022-12-05T02:31:27.740Z,-1.60
2022-12-05T02:33:10.193Z,-1.58
2022-12-05T02:34:28.358Z,-1.63
2022-12-05T02:35:54.381Z,-1.61
2022-12-05T02:37:13.807Z,-1.60
2022-12-05T02:38:33.227Z,-1.56
2022-12-05T02:39:47.946Z,-1.52
2022-12-05T02:41:09.311Z,-1.47
2022-12-05T02:42:28.889Z,-1.51
2022-12-05T02:43:46.083Z,-1.51
2022-12-05T02:45:02.073Z,-1.54
2022-12-05T02:46:17.368Z,-1.54
2022-12-05T02:47:31.268Z,-1.50
2022-12-05T02:48:41.823Z,-1.46
2022-12-05T02:49:45.755Z,-1.43
2022-12-05T02:50:57.842Z,-1.53
2022-12-05T02:52:08.482Z,-1.45
2022-12-05T02:53:20.793Z,-1.41
2022-12-05T02:54:34.414Z,-1.41
2022-12-05T02:55:44.943Z,-1.47
2022-12-05T02:56:55.609Z,-1.54
2022-12-05T02:58:10.351Z,-1.50
2022-12-05T02:59:19.898Z,-1.44
2022-12-05T03:00:31.788Z,-1.45
2022-12-05T03:01:35.528Z,-1.47
2022-12-05T03:02:44.750Z,-1.41
2022-12-05T03:03:49.678Z,-1.44
2022-12-05T03:05:01.217Z,-1.42
2022-12-05T03:06:13.822Z,-1.44
2022-12-05T03:07:26.701Z,-1.35
2022-12-05T03:08:38.106Z,-1.38
2022-12-05T03:09:52.783Z,-1.40
2022-12-05T03:11:03.615Z,-1.46
2022-12-05T03:12:19.279Z,-1.43
2022-12-05T03:13:33.174Z,-1.42
2022-12-05T03:14:50.116Z,-1.49
2022-12-05T03:16:15.246Z,-1.46
2022-12-05T03:17:25.193Z,-1.47
2022-12-05T03:18:39.326Z,-1.52
2022-12-05T03:19:58.426Z,-1.53
2022-12-05T03:21:19.080Z,-1.55
2022-12-05T03:22:33.177Z,-1.52
2022-12-05T03:23:49.146Z,-1.52
2022-12-05T03:24:53.811Z,-1.52
2022-12-05T03:26:15.220Z,-1.47
2022-12-05T03:27:34.726Z,-1.41
2022-12-05T03:29:00.451Z,-1.57
2022-12-05T03:30:13.165Z,-1.66
2022-12-05T03:31:37.856Z,-1.57
2022-12-05T03:32:54.836Z,-1.56
2022-12-05T03:34:04.124Z,-1.56
2022-12-05T03:35:23.831Z,-1.71
2022-12-05T03:36:41.170Z,-1.78
2022-12-05T03:37:56.739Z,-1.78
2022-12-05T03:39:11.217Z,-1.74
2022-12-05T03:40:30.796Z,-1.70
2022-12-05T03:41:43.233Z,-1.66
2022-12-05T03:43:05.717Z,-1.56
2022-12-05T03:44:18.610Z,-1.58
2022-12-05T03:45:39.829Z,-1.59
2022-12-05T03:46:57.092Z,-1.65
2022-12-05T03:48:17.897Z,-1.69
2022-12-05T03:49:34.131Z,-1.65
2022-12-05T03:50:51.083Z,-1.62
2022-12-05T03:52:07.671Z,-1.67
2022-12-05T03:53:26.206Z,-1.71
2022-12-05T03:54:38.652Z,-1.74
2022-12-05T03:56:05.056Z,-1.72
2022-12-05T03:57:17.825Z,-1.82
2022-12-05T03:58:34.693Z,-1.88
2022-12-05T03:59:50.196Z,-1.86
2022-12-05T04:01:02.475Z,-1.79
2022-12-05T04:02:19.017Z,-1.81
2022-12-05T04:03:40.067Z,-1.76
2022-12-05T04:04:55.111Z,-1.75
2022-12-05T04:06:07.170Z,-1.78
2022-12-05T04:07:18.357Z,-1.81
2022-12-05T04:08:30.272Z,-1.83
2022-12-05T04:09:48.060Z,-1.85
2022-12-05T04:10:59.860Z,-1.83
2022-12-05T04:12:13.763Z,-1.77
2022-12-05T04:13:25.923Z,-1.88
2022-12-05T04:14:43.695Z,-1.86
2022-12-05T04:16:15.784Z,-1.78
2022-12-05T04:17:34.249Z,-1.76
2022-12-05T04:18:50.683Z,-1.71
2022-12-05T04:20:16.512Z,-1.71
2022-12-05T04:21:41.511Z,-1.69
2022-12-05T04:22:49.127Z,-1.76
2022-12-05T04:24:08.746Z,-1.73
2022-12-05T04:25:33.018Z,-1.75
2022-12-05T04:26:53.724Z,-1.74
2022-12-05T04:28:21.437Z,-1.72
2022-12-05T04:29:35.613Z,-1.78
2022-12-05T04:30:53.774Z,-1.73
2022-12-05T04:32:07.251Z,-1.74
2022-12-05T04:33:32.442Z,-1.74
2022-12-05T04:34:42.212Z,-1.75
2022-12-05T04:35:57.782Z,-1.73
2022-12-05T04:37:13.049Z,-1.74
2022-12-05T04:38:29.848Z,-1.77
2022-12-05T04:39:46.982Z,-1.82
2022-12-05T04:41:02.320Z,-1.88
2022-12-05T04:42:15.027Z,-1.89
2022-12-05T04:43:25.986Z,-1.95
2022-12-05T04:44:38.317Z,-1.95
2022-12-05T04:45:47.935Z,-1.92
2022-12-05T04:46:57.746Z,-1.99
2022-12-05T04:48:17.224Z,-1.97
2022-12-05T04:49:29.820Z,-1.92
2022-12-05T04:50:42.829Z,-1.96
2022-12-05T04:51:53.181Z,-1.98
2022-12-05T04:53:04.291Z,-1.91
2022-12-05T04:54:26.699Z,-1.87
2022-12-05T04:55:42.679Z,-1.89
2022-12-05T04:56:58.124Z,-1.84
2022-12-05T04:58:14.609Z,-1.88
2022-12-05T04:59:21.621Z,-1.81
2022-12-05T05:00:29.197Z,-1.80
2022-12-05T05:01:43.547Z,-1.78
2022-12-05T05:02:59.217Z,-1.83
2022-12-05T05:04:14.139Z,-1.72
2022-12-05T05:05:24.944Z,-1.79
2022-12-05T05:06:29.373Z,-1.86
2022-12-05T05:07:35.506Z,-1.86
2022-12-05T05:08:49.863Z,-1.78
2022-12-05T05:09:56.409Z,-1.69
2022-12-05T05:11:15.948Z,-1.69
2022-12-05T05:12:22.105Z,-1.62
2022-12-05T05:13:26.238Z,-1.55
2022-12-05T05:14:32.893Z,-1.50
2022-12-05T05:15:36.641Z,-1.47
2022-12-05T05:16:47.732Z,-1.44
2022-12-05T05:17:51.172Z,-1.46
2022-12-05T05:18:58.079Z,-1.45
2022-12-05T05:20:20.323Z,-1.55
2022-12-05T05:21:30.269Z,-1.53
2022-12-05T05:22:34.684Z,-1.55
2022-12-05T05:23:40.807Z,-1.56
2022-12-05T05:24:44.297Z,-1.50
2022-12-05T05:25:57.758Z,-1.59
2022-12-05T05:27:01.316Z,-1.52
2022-12-05T05:28:08.999Z,-1.48
2022-12-05T05:29:14.775Z,-1.46
2022-12-05T05:30:23.039Z,-1.49
2022-12-05T05:31:27.628Z,-1.54
2022-12-05T05:32:36.080Z,-1.65
2022-12-05T05:33:44.393Z,-1.62
2022-12-05T05:34:48.060Z,-1.55
2022-12-05T05:35:56.872Z,-1.58
2022-12-05T05:37:02.519Z,-1.55
2022-12-05T05:38:09.050Z,-1.58
2022-12-05T05:39:15.537Z,-1.58
2022-12-05T05:40:23.639Z,-1.66
2022-12-05T05:41:32.981Z,-1.60
2022-12-05T05:42:39.646Z,-1.53
2022-12-05T05:43:45.164Z,-1.63
2022-12-05T05:44:52.155Z,-1.58
2022-12-05T05:45:55.828Z,-1.63
2022-12-05T05:47:02.794Z,-1.67
2022-12-05T05:48:07.188Z,-1.68
2022-12-05T05:49:13.989Z,-1.69
2022-12-05T05:50:21.717Z,-1.63
2022-12-05T05:51:32.465Z,-1.64
2022-12-05T05:52:38.566Z,-1.68
2022-12-05T05:53:45.333Z,-1.70
2022-12-05T05:54:48.972Z,-1.64
2022-12-05T05:55:56.253Z,-1.65
2022-12-05T05:56:59.783Z,-1.58
2022-12-05T05:58:06.015Z,-1.62
2022-12-05T05:59:13.265Z,-1.62
2022-12-05T06:00:18.303Z,-1.71
2022-12-05T06:01:25.676Z,-1.66
2022-12-05T06:02:34.082Z,-1.77
2022-12-05T06:03:41.796Z,-1.85
2022-12-05T06:04:45.597Z,-1.80
2022-12-05T06:06:01.130Z,-1.76
2022-12-05T06:07:08.186Z,-1.81
2022-12-05T06:08:14.645Z,-1.76
2022-12-05T06:09:21.005Z,-1.78
2022-12-05T06:10:24.687Z,-1.80
2022-12-05T06:11:32.101Z,-1.76
2022-12-05T06:12:39.737Z,-1.77
2022-12-05T06:13:44.092Z,-1.71
2022-12-05T06:14:51.907Z,-1.73
2022-12-05T06:15:58.192Z,-1.72
2022-12-05T06:17:03.158Z,-1.77
2022-12-05T06:18:10.334Z,-1.81
2022-12-05T06:19:14.373Z,-1.72
2022-12-05T06:20:20.794Z,-1.77
2022-12-05T06:21:26.130Z,-1.73
2022-12-05T06:22:36.289Z,-1.65
2022-12-05T06:23:40.821Z,-1.67
2022-12-05T06:24:47.044Z,-1.66
2022-12-05T06:25:56.953Z,-1.67
2022-12-05T06:27:03.086Z,-1.70
2022-12-05T06:28:09.553Z,-1.65
2022-12-05T06:29:14.324Z,-1.57
2022-12-05T06:30:21.018Z,-1.63
2022-12-05T06:31:28.632Z,-1.60
2022-12-05T06:32:34.984Z,-1.64
2022-12-05T06:33:41.136Z,-1.75
2022-12-05T06:34:48.289Z,-1.72
2022-12-05T06:36:04.680Z,-1.78
2022-12-05T06:37:11.393Z,-1.77
2022-12-05T06:38:17.667Z,-1.74
2022-12-05T06:39:25.051Z,-1.75
2022-12-05T06:40:30.113Z,-1.69
2022-12-05T06:41:36.670Z,-1.72
2022-12-05T06:42:43.346Z,-1.82
2022-12-05T06:43:50.804Z,-1.82
2022-12-05T06:44:54.496Z,-1.79
2022-12-05T06:46:01.680Z,-1.81
2022-12-05T06:47:05.912Z,-1.74
2022-12-05T06:48:12.237Z,-1.74
2022-12-05T06:49:16.088Z,-1.70
2022-12-05T06:50:23.054Z,-1.60
2022-12-05T06:51:27.771Z,-1.61
2022-12-05T06:52:33.835Z,-1.54
2022-12-05T06:53:41.017Z,-1.59
2022-12-05T06:54:49.399Z,-1.58
2022-12-05T06:56:00.625Z,-1.52
2022-12-05T06:57:07.870Z,-1.54
2022-12-05T06:58:13.893Z,-1.54
2022-12-05T06:59:20.447Z,-1.55
2022-12-05T07:00:39.433Z,-1.54
2022-12-05T07:01:44.218Z,-1.49
2022-12-05T07:02:55.449Z,-1.56
2022-12-05T07:03:59.286Z,-1.47
2022-12-05T07:05:05.558Z,-1.46
2022-12-05T07:06:11.695Z,-1.52
2022-12-05T07:07:18.008Z,-1.69
2022-12-05T07:08:23.133Z,-1.57
2022-12-05T07:09:45.571Z,-1.58
2022-12-05T07:10:56.177Z,-1.55
2022-12-05T07:11:59.856Z,-1.46
2022-12-05T07:13:06.130Z,-1.33
2022-12-05T07:14:19.278Z,-1.37
2022-12-05T07:15:36.637Z,-1.33
2022-12-05T07:16:40.176Z,-1.36
2022-12-05T07:17:46.444Z,-1.47
2022-12-05T07:18:50.578Z,-1.44
2022-12-05T07:19:58.256Z,-1.45
2022-12-05T07:21:14.792Z,-1.37
2022-12-05T07:22:23.524Z,-1.33
2022-12-05T07:23:34.199Z,-1.22
2022-12-05T07:24:43.162Z,-1.27
2022-12-05T07:25:47.500Z,-1.31
2022-12-05T07:26:53.824Z,-1.27
2022-12-05T07:27:57.476Z,-1.29
2022-12-05T07:29:05.237Z,-1.27
2022-12-05T07:30:10.608Z,-1.26
2022-12-05T07:31:22.862Z,-1.33
2022-12-05T07:32:26.452Z,-1.45
2022-12-05T07:33:33.320Z,-1.51
2022-12-05T07:34:36.870Z,-1.51
2022-12-05T07:35:43.017Z,-1.52
2022-12-05T07:36:49.977Z,-1.51
2022-12-05T07:37:53.465Z,-1.48
2022-12-05T07:39:01.494Z,-1.40
2022-12-05T07:40:10.185Z,-1.28
2022-12-05T07:41:23.485Z,-1.21
2022-12-05T07:42:30.383Z,-1.31
2022-12-05T07:43:36.691Z,-1.25
2022-12-05T07:44:42.853Z,-1.29
2022-12-05T07:45:46.637Z,-1.32
2022-12-05T07:46:52.720Z,-1.32
2022-12-05T07:47:57.197Z,-1.32
2022-12-05T07:49:03.379Z,-1.28
2022-12-05T07:50:12.032Z,-1.21
2022-12-05T07:51:18.328Z,-1.23
2022-12-05T07:52:24.393Z,-1.15
2022-12-05T07:53:31.380Z,-1.05
2022-12-05T07:54:37.528Z,-1.04
2022-12-05T07:55:46.165Z,-1.12
2022-12-05T07:56:49.626Z,-1.14
2022-12-05T07:57:55.704Z,-1.06
2022-12-05T07:59:00.064Z,-0.97
2022-12-05T08:00:10.122Z,-0.90
2022-12-05T08:01:20.670Z,-1.00
2022-12-05T08:02:27.714Z,-0.97
2022-12-05T08:03:31.533Z,-1.02
2022-12-05T08:04:38.608Z,-1.00
2022-12-05T08:05:42.083Z,-1.19
2022-12-05T08:06:48.359Z,-1.17
2022-12-05T08:07:56.154Z,-1.08
2022-12-05T08:08:59.821Z,-1.11
2022-12-05T08:10:07.813Z,-1.18
2022-12-05T08:11:17.660Z,-1.21
2022-12-05T08:12:23.776Z,-1.22
2022-12-05T08:13:29.924Z,-1.21
2022-12-05T08:14:36.061Z,-1.18
2022-12-05T08:15:40.329Z,-1.12
2022-12-05T08:16:46.450Z,-1.13
2022-12-05T08:17:52.626Z,-1.15
2022-12-05T08:18:57.163Z,-1.07
2022-12-05T08:20:03.253Z,-1.02
2022-12-05T08:21:12.406Z,-1.01
2022-12-05T08:22:18.666Z,-0.90
2022-12-05T08:23:23.541Z,-0.81
2022-12-05T08:24:30.052Z,-0.81
2022-12-05T08:25:35.126Z,-0.72
2022-12-05T08:26:45.620Z,-0.75
2022-12-05T08:27:51.062Z,-0.75
2022-12-05T08:29:02.025Z,-0.62
2022-12-05T08:30:10.763Z,-0.60
2022-12-05T08:31:18.418Z,-0.62
2022-12-05T08:32:25.508Z,-0.77
2022-12-05T08:33:30.835Z,-0.82
2022-12-05T08:34:36.944Z,-0.92
2022-12-05T08:35:40.330Z,-0.96
2022-12-05T08:36:47.476Z,-0.99
2022-12-05T08:37:55.530Z,-0.88
2022-12-05T08:39:04.769Z,-0.76
2022-12-05T08:40:10.147Z,-0.73
2022-12-05T08:41:20.447Z,-0.65
2022-12-05T08:42:29.315Z,-0.73
2022-12-05T08:43:37.359Z,-0.67
2022-12-05T08:44:40.885Z,-0.68
2022-12-05T08:45:53.536Z,-0.78
2022-12-05T08:47:00.827Z,-0.82
2022-12-05T08:48:07.348Z,-0.75
2022-12-05T08:49:12.867Z,-0.79
2022-12-05T08:50:19.414Z,-0.71
2022-12-05T08:51:22.923Z,-0.63
2022-12-05T08:52:29.427Z,-0.70
2022-12-05T08:53:40.943Z,-0.64
2022-12-05T08:54:51.495Z,-0.60
2022-12-05T08:55:57.702Z,-0.76
2022-12-05T08:57:04.076Z,-0.67
2022-12-05T08:58:10.359Z,-0.56
2022-12-05T08:59:16.470Z,-0.50
2022-12-05T09:00:21.766Z,-0.46
2022-12-05T09:01:32.172Z,-0.42
2022-12-05T09:02:38.586Z,-0.45
2022-12-05T09:03:47.865Z,-0.38
2022-12-05T09:04:55.212Z,-0.33
2022-12-05T09:06:08.323Z,-0.32
2022-12-05T09:07:14.631Z,-0.30
2022-12-05T09:08:20.797Z,-0.22
2022-12-05T09:09:27.880Z,-0.24
2022-12-05T09:10:35.523Z,-0.22
2022-12-05T09:11:49.113Z,-0.18
2022-12-05T09:12:52.837Z,-0.13
2022-12-05T09:14:05.103Z,-0.25
2022-12-05T09:15:15.008Z,-0.27
2022-12-05T09:16:22.675Z,-0.36
2022-12-05T09:17:29.703Z,-0.57
2022-12-05T09:18:33.378Z,-0.51
2022-12-05T09:19:39.575Z,-0.67
2022-12-05T09:20:45.706Z,-0.73
2022-12-05T09:21:52.129Z,-0.64
2022-12-05T09:22:58.979Z,-0.65
2022-12-05T09:24:02.677Z,-0.67
2022-12-05T09:25:12.977Z,-0.59
2022-12-05T09:26:22.054Z,-0.50
2022-12-05T09:27:28.135Z,-0.53
2022-12-05T09:28:34.391Z,-0.62
2022-12-05T09:29:43.244Z,-0.56
2022-12-05T09:30:55.655Z,-0.55
2022-12-05T09:32:01.758Z,-0.60
2022-12-05T09:33:05.218Z,-0.69
2022-12-05T09:34:14.314Z,-0.60
2022-12-05T09:35:18.102Z,-0.57
2022-12-05T09:36:27.540Z,-0.54
2022-12-05T09:37:39.145Z,-0.46
2022-12-05T09:38:47.058Z,-0.29
2022-12-05T09:39:57.055Z,-0.16
2022-12-05T09:41:46.824Z,-0.13
2022-12-05T09:43:09.900Z,-0.32
2022-12-05T09:44:47.446Z,-0.34
2022-12-05T09:46:07.802Z,-0.19
2022-12-05T09:47:32.590Z,-0.10
2022-12-05T09:48:45.212Z,-0.08
2022-12-05T09:49:57.917Z,-0.08
2022-12-05T09:51:07.336Z,0.01
2022-12-05T09:52:27.402Z,0.14
2022-12-05T09:53:44.786Z,0.07
2022-12-05T09:54:49.558Z,0.10
2022-12-05T09:56:06.981Z,0.18
2022-12-05T09:57:13.441Z,0.19
2022-12-05T09:58:44.707Z,0.22
2022-12-05T09:59:51.641Z,0.18
2022-12-05T10:01:07.323Z,0.14
2022-12-05T10:02:41.196Z,0.27
2022-12-05T10:04:08.636Z,0.27
2022-12-05T10:05:28.193Z,0.20
2022-12-05T10:06:47.050Z,0.38
2022-12-05T10:08:12.124Z,0.56
2022-12-05T10:09:45.037Z,0.45
2022-12-05T10:11:05.361Z,0.21
2022-12-05T10:12:40.551Z,0.18
2022-12-05T10:14:06.744Z,0.21
2022-12-05T10:15:32.582Z,0.15
2022-12-05T10:16:52.727Z,0.28
2022-12-05T10:18:14.079Z,0.25
2022-12-05T10:19:32.017Z,0.20
2022-12-05T10:20:51.093Z,-0.14
2022-12-05T10:22:07.661Z,-0.19
2022-12-05T10:23:55.573Z,-0.24
2022-12-05T10:24:59.896Z,-0.26
2022-12-05T10:26:13.150Z,-0.16
2022-12-05T10:27:27.541Z,-0.25
2022-12-05T10:28:45.484Z,-0.15
2022-12-05T10:30:07.671Z,-0.15
2022-12-05T10:31:24.808Z,0.00
2022-12-05T10:32:40.340Z,0.05
2022-12-05T10:34:01.816Z,0.15
2022-12-05T10:35:22.665Z,0.23
2022-12-05T10:36:29.565Z,0.36
2022-12-05T10:37:35.862Z,0.42
2022-12-05T10:38:41.467Z,0.51
2022-12-05T10:39:49.477Z,0.58
2022-12-05T10:41:02.591Z,0.57
2022-12-05T10:42:13.169Z,0.46
2022-12-05T10:43:29.583Z,0.51
2022-12-05T10:44:41.938Z,0.56
2022-12-05T10:45:51.704Z,0.58
2022-12-05T10:47:02.043Z,0.48
2022-12-05T10:48:08.972Z,0.56
2022-12-05T10:49:16.257Z,0.71
2022-12-05T10:50:35.886Z,0.76
2022-12-05T10:51:43.892Z,0.84
2022-12-05T10:52:48.897Z,0.95
2022-12-05T10:53:56.522Z,0.97
2022-12-05T10:55:09.853Z,0.91
2022-12-05T10:56:45.280Z,0.82
2022-12-05T10:57:56.173Z,0.81
2022-12-05T10:59:00.440Z,0.90
2022-12-05T11:00:18.170Z,0.99
2022-12-05T11:01:28.746Z,0.95
2022-12-05T11:02:38.594Z,0.99
2022-12-05T11:03:44.782Z,1.03
2022-12-05T11:04:52.287Z,0.81
2022-12-05T11:06:02.960Z,0.59
2022-12-05T11:07:10.176Z,0.33
2022-12-05T11:08:48.217Z,0.18
2022-12-05T11:09:52.235Z,0.12
2022-12-05T11:11:10.679Z,0.21
2022-12-05T11:12:23.311Z,0.26
2022-12-05T11:13:29.996Z,0.37
2022-12-05T11:14:37.370Z,0.51
2022-12-05T11:15:55.272Z,0.67
2022-12-05T11:17:06.235Z,0.72
2022-12-05T11:18:33.459Z,0.80
2022-12-05T11:19:41.686Z,0.91
2022-12-05T11:20:49.713Z,0.91
2022-12-05T11:21:57.983Z,0.97
2022-12-05T11:23:32.464Z,1.07
2022-12-05T11:24:42.840Z,1.08
2022-12-05T11:26:04.184Z,1.03
2022-12-05T11:27:31.554Z,1.05
2022-12-05T11:28:38.675Z,1.00
2022-12-05T11:29:48.606Z,1.07
2022-12-05T11:31:03.625Z,1.17
2022-12-05T11:32:29.648Z,1.21
2022-12-05T11:33:40.880Z,0.96
2022-12-05T11:34:58.497Z,0.90
2022-12-05T11:36:17.153Z,0.80
2022-12-05T11:37:35.437Z,0.69
2022-12-05T11:38:45.304Z,0.78
2022-12-05T11:39:55.540Z,0.75
2022-12-05T11:41:41.055Z,0.54
2022-12-05T11:43:22.881Z,0.51
2022-12-05T11:45:10.871Z,0.70
2022-12-05T11:46:37.895Z,0.58
2022-12-05T11:48:25.297Z,0.60
2022-12-05T11:50:10.879Z,0.80
2022-12-05T11:51:44.775Z,0.80
2022-12-05T11:53:19.690Z,0.73
2022-12-05T11:55:08.741Z,0.76
2022-12-05T11:56:39.400Z,0.52
2022-12-05T11:58:11.330Z,0.55
2022-12-05T11:59:53.022Z,0.60
2022-12-05T12:01:21.659Z,0.66
2022-12-05T12:03:00.662Z,0.61
2022-12-05T12:04:42.615Z,0.65
2022-12-05T12:06:06.515Z,0.77
2022-12-05T12:07:41.841Z,0.87
2022-12-05T12:09:15.987Z,0.99
2022-12-05T12:10:36.253Z,0.92
2022-12-05T12:11:55.096Z,0.87
2022-12-05T12:13:33.390Z,0.82
2022-12-05T12:14:59.799Z,0.94
2022-12-05T12:16:25.906Z,0.96
2022-12-05T12:17:53.357Z,1.14
2022-12-05T12:19:34.365Z,1.26
2022-12-05T12:21:09.760Z,1.28
2022-12-05T12:22:50.576Z,1.48
2022-12-05T12:24:18.721Z,1.68
2022-12-05T12:25:45.422Z,1.81
2022-12-05T12:27:15.130Z,1.92
2022-12-05T12:28:42.473Z,2.02
2022-12-05T12:30:08.297Z,2.03
2022-12-05T12:31:45.917Z,2.08
2022-12-05T12:33:13.221Z,2.17
2022-12-05T12:34:51.937Z,2.27
2022-12-05T12:36:18.881Z,2.33
2022-12-05T12:37:44.717Z,2.40
2022-12-05T12:39:26.683Z,2.47
2022-12-05T12:40:46.868Z,2.56
2022-12-05T12:42:17.106Z,2.64
2022-12-05T12:43:54.511Z,2.68
2022-12-05T12:45:52.334Z,2.74
2022-12-05T12:47:02.134Z,2.72
2022-12-05T12:48:33.822Z,2.78
2022-12-05T12:50:05.304Z,2.80
2022-12-05T12:51:18.306Z,2.82
2022-12-05T12:52:33.225Z,2.86
2022-12-05T12:54:47.328Z,2.90
2022-12-05T12:56:13.234Z,2.89
2022-12-05T12:57:34.425Z,2.91
2022-12-05T12:58:57.337Z,2.86
2022-12-05T13:00:21.779Z,2.83
2022-12-05T13:01:44.244Z,2.79
2022-12-05T13:03:07.097Z,2.64
2022-12-05T13:04:23.567Z,2.44
2022-12-05T13:05:42.233Z,2.61
2022-12-05T13:07:00.294Z,2.58
2022-12-05T13:08:18.632Z,2.60
2022-12-05T13:09:33.380Z,2.65
2022-12-05T13:10:45.048Z,2.72
2022-12-05T13:11:56.521Z,2.70
2022-12-05T13:13:03.026Z,2.71
2022-12-05T13:14:18.828Z,2.76
2022-12-05T13:15:41.184Z,2.82
2022-12-05T13:16:55.084Z,2.89
2022-12-05T13:18:00.164Z,2.95
2022-12-05T13:19:09.815Z,3.00
2022-12-05T13:20:23.634Z,2.89
2022-12-05T13:21:31.662Z,3.00
2022-12-05T13:22:41.256Z,2.87
2022-12-05T13:23:55.241Z,2.78
2022-12-05T13:25:01.629Z,2.57
2022-12-05T13:26:15.610Z,2.89
2022-12-05T13:27:27.394Z,2.91
2022-12-05T13:28:42.308Z,2.75
2022-12-05T13:29:56.876Z,2.70
2022-12-05T13:31:06.693Z,2.72
2022-12-05T13:32:33.878Z,2.65
2022-12-05T13:33:49.661Z,2.58
2022-12-05T13:34:57.939Z,2.50
2022-12-05T13:36:26.356Z,2.35
2022-12-05T13:37:49.052Z,2.46
2022-12-05T13:39:20.114Z,2.42
2022-12-05T13:40:46.732Z,2.38
2022-12-05T13:42:11.737Z,2.36
2022-12-05T13:43:23.320Z,2.16
2022-12-05T13:44:41.006Z,2.19
2022-12-05T13:46:08.330Z,2.07
2022-12-05T13:47:34.375Z,1.99
2022-12-05T13:48:47.468Z,1.92
2022-12-05T13:50:00.840Z,1.80
2022-12-05T13:51:16.614Z,1.80
2022-12-05T13:52:30.694Z,1.69
2022-12-05T13:53:44.053Z,1.75
2022-12-05T13:55:04.302Z,1.76
2022-12-05T13:56:31.181Z,1.70
2022-12-05T13:57:56.578Z,1.64
2022-12-05T13:59:02.968Z,1.78
2022-12-05T14:00:34.462Z,1.86
2022-12-05T14:01:56.132Z,1.80
2022-12-05T14:03:41.063Z,1.86
2022-12-05T14:04:54.099Z,1.92
2022-12-05T14:06:01.771Z,1.96
2022-12-05T14:07:08.622Z,1.89
2022-12-05T14:08:56.595Z,1.94
2022-12-05T14:10:05.718Z,1.83
2022-12-05T14:11:15.475Z,1.72
2022-12-05T14:12:54.176Z,1.43
2022-12-05T14:14:04.682Z,1.58
2022-12-05T14:15:35.496Z,1.49
2022-12-05T14:16:48.640Z,1.43
2022-12-05T14:18:05.185Z,1.33
2022-12-05T14:19:55.588Z,1.39
2022-12-05T14:21:17.992Z,1.40
2022-12-05T14:23:10.881Z,1.36
2022-12-05T14:24:39.104Z,1.38
2022-12-05T14:26:20.864Z,1.51
2022-12-05T14:27:52.710Z,1.62
2022-12-05T14:29:33.998Z,1.66
2022-12-05T14:31:06.010Z,1.81
2022-12-05T14:32:28.557Z,1.92
2022-12-05T14:33:37.673Z,1.95
2022-12-05T14:35:01.983Z,1.88
2022-12-05T14:36:20.606Z,1.85
2022-12-05T14:37:33.952Z,1.73
2022-12-05T14:38:43.372Z,1.80
2022-12-05T14:39:57.372Z,1.81
2022-12-05T14:41:35.198Z,1.73
2022-12-05T14:42:48.124Z,1.62
2022-12-05T14:44:03.817Z,1.65
2022-12-05T14:45:36.145Z,1.60
2022-12-05T14:46:49.255Z,1.60
2022-12-05T14:48:00.999Z,1.68
2022-12-05T14:49:56.635Z,1.79
2022-12-05T14:51:04.994Z,1.85
2022-12-05T14:52:20.190Z,1.68
2022-12-05T14:53:39.845Z,1.61
2022-12-05T14:54:45.903Z,1.43
2022-12-05T14:55:57.283Z,1.48
2022-12-05T14:57:18.367Z,1.43
2022-12-05T14:58:39.923Z,1.33
2022-12-05T14:59:59.202Z,1.32
2022-12-05T15:01:09.455Z,1.29
2022-12-05T15:02:28.675Z,1.24
2022-12-05T15:03:41.216Z,1.20
2022-12-05T15:04:59.485Z,1.17
2022-12-05T15:06:16.281Z,1.21
2022-12-05T15:07:34.169Z,1.18
2022-12-05T15:08:55.068Z,1.01
2022-12-05T15:10:07.758Z,1.16
2022-12-05T15:11:28.571Z,1.21
2022-12-05T15:12:50.058Z,1.18
2022-12-05T15:13:59.576Z,1.19
2022-12-05T15:15:20.064Z,1.28
2022-12-05T15:16:25.289Z,1.31
2022-12-05T15:17:43.544Z,1.38
2022-12-05T15:18:56.777Z,1.50
2022-12-05T15:20:15.830Z,1.63
2022-12-05T15:21:32.114Z,1.63
2022-12-05T15:22:41.192Z,1.62
2022-12-05T15:23:48.890Z,1.62
2022-12-05T15:24:55.009Z,1.63
2022-12-05T15:26:17.566Z,1.70
2022-12-05T15:27:28.035Z,1.76
2022-12-05T15:28:34.199Z,1.57
2022-12-05T15:29:42.877Z,1.56
2022-12-05T15:30:58.980Z,1.44
2022-12-05T15:32:06.853Z,1.41
2022-12-05T15:33:17.024Z,1.45
2022-12-05T15:34:31.756Z,1.43
2022-12-05T15:35:38.732Z,1.43
2022-12-05T15:36:53.718Z,1.50
2022-12-05T15:38:09.586Z,1.61
2022-12-05T15:39:26.682Z,1.57
2022-12-05T15:40:40.844Z,1.48
2022-12-05T15:41:49.695Z,1.49
2022-12-05T15:42:59.376Z,1.31
2022-12-05T15:44:09.025Z,1.45
2022-12-05T15:45:23.740Z,1.47
2022-12-05T15:46:32.156Z,1.40
2022-12-05T15:47:38.307Z,1.40
2022-12-05T15:48:41.743Z,1.50
2022-12-05T15:49:49.858Z,1.61
2022-12-05T15:50:57.581Z,1.67
2022-12-05T15:52:29.857Z,1.75
2022-12-05T15:53:46.814Z,1.71
2022-12-05T15:54:56.806Z,1.60
2022-12-05T15:56:14.896Z,1.55
2022-12-05T15:57:35.340Z,1.42
2022-12-05T15:58:50.649Z,1.22
2022-12-05T16:00:09.181Z,1.47
2022-12-05T16:01:27.357Z,1.46
2022-12-05T16:02:50.140Z,1.43
2022-12-05T16:04:03.094Z,1.43
2022-12-05T16:05:24.602Z,1.49
2022-12-05T16:06:40.612Z,1.58
2022-12-05T16:07:47.617Z,1.67
2022-12-05T16:08:53.051Z,1.82
2022-12-05T16:10:03.384Z,1.87
2022-12-05T16:11:09.969Z,2.01
2022-12-05T16:12:30.401Z,1.95
2022-12-05T16:13:36.914Z,2.02
2022-12-05T16:14:59.527Z,1.92
2022-12-05T16:16:11.877Z,1.91
2022-12-05T16:17:21.044Z,1.95
2022-12-05T16:18:32.045Z,1.99
2022-12-05T16:19:38.780Z,1.99
2022-12-05T16:20:45.008Z,2.05
2022-12-05T16:22:05.700Z,2.11
2022-12-05T16:23:30.333Z,2.17
2022-12-05T16:24:45.229Z,2.26
2022-12-05T16:25:49.340Z,2.34
2022-12-05T16:27:07.299Z,2.38
2022-12-05T16:28:21.516Z,2.39